Time;durP1;ratioP1;P1;durP2;ratioP2;P2;SDS_P1;SDS_P2;PMS_P1;PMS_P2;Temp;Humidity;BMP_temperature;BMP_pressure;BME280_temperature;BME280_humidity;BME280_pressure;Samples;Min_cycle;Max_cycle;Signal;HPM_P1;HPM_P2
2023/12/03 00:09:45;;;;;;;;;;;-0.70;99.90;;;;;;6753103;88;20023;-79
2023/12/03 00:19:46;;;;;;;;;;;-0.70;99.90;;;;;;6752932;88;20055;-82
2023/12/03 00:29:46;;;;;;;;;;;-0.60;99.90;;;;;;6751303;88;20066;-81
2023/12/03 00:39:47;;;;;;;;;;;-0.60;99.90;;;;;;6747558;88;20043;-81
2023/12/03 00:49:47;;;;;;;;;;;-0.60;99.90;;;;;;6753351;88;20065;-80
2023/12/03 00:59:48;;;;;;;;;;;-0.60;99.90;;;;;;6720952;88;20096;-81
2023/12/03 01:09:48;;;;;;;;;;;-0.70;99.90;;;;;;6729868;88;20125;-80
2023/12/03 01:19:48;;;;;;;;;;;-0.70;99.90;;;;;;6743727;88;20047;-82
2023/12/03 01:29:49;;;;;;;;;;;-0.70;99.90;;;;;;6753789;88;20798;-80
2023/12/03 01:39:49;;;;;;;;;;;-0.70;99.90;;;;;;6746275;88;20066;-80
2023/12/03 01:49:50;;;;;;;;;;;-0.70;99.90;;;;;;6760410;88;20054;-79
2023/12/03 01:59:50;;;;;;;;;;;-0.70;99.90;;;;;;6751298;88;20610;-80
2023/12/03 02:09:51;;;;;;;;;;;-0.70;99.90;;;;;;6749965;88;20065;-80
2023/12/03 02:19:51;;;;;;;;;;;-0.80;99.90;;;;;;6750768;88;20054;-81
2023/12/03 02:29:52;;;;;;;;;;;-0.90;99.90;;;;;;6753244;88;20054;-80
2023/12/03 02:39:52;;;;;;;;;;;-0.90;99.90;;;;;;6748459;88;20070;-80
2023/12/03 02:49:52;;;;;;;;;;;-0.90;99.90;;;;;;6746369;88;20035;-80
2023/12/03 02:59:53;;;;;;;;;;;-1.00;99.90;;;;;;6745662;88;20047;-81
2023/12/03 03:09:53;;;;;;;;;;;-1.10;99.90;;;;;;6745004;88;20529;-81
2023/12/03 03:19:54;;;;;;;;;;;-1.10;99.90;;;;;;6747629;88;20157;-79
2023/12/03 03:29:54;;;;;;;;;;;-1.20;99.90;;;;;;6749105;88;20543;-79
2023/12/03 03:49:58;;;;;;;;;;;-1.30;99.90;;;;;;6763469;88;20070;-81
2023/12/03 03:59:59;;;;;;;;;;;-1.20;99.90;;;;;;6762502;88;20844;-82
2023/12/03 04:09:59;;;;;;;;;;;-1.10;99.90;;;;;;6762849;88;20080;-81
2023/12/03 04:20:00;;;;;;;;;;;-1.00;99.90;;;;;;6728844;88;20047;-79
2023/12/03 04:30:00;;;;;;;;;;;-1.10;99.90;;;;;;6729763;88;20170;-81
2023/12/03 04:40:01;;;;;;;;;;;-1.00;99.90;;;;;;6725002;88;20052;-81
2023/12/03 04:50:01;;;;;;;;;;;-0.90;99.90;;;;;;6757115;88;20050;-83
2023/12/03 05:00:02;;;;;;;;;;;-0.90;99.90;;;;;;6765119;88;20050;-83
2023/12/03 05:10:03;;;;;;;;;;;-1.00;99.90;;;;;;6762326;88;20563;-80
2023/12/03 05:20:03;;;;;;;;;;;-1.00;99.90;;;;;;6763916;88;20077;-80
2023/12/03 05:30:04;;;;;;;;;;;-1.00;99.90;;;;;;6744457;88;20171;-82
2023/12/03 05:40:08;;;;;;;;;;;-1.10;99.90;;;;;;6743318;88;20066;-81
2023/12/03 05:50:09;;;;;;;;;;;-1.10;99.90;;;;;;6724159;88;20046;-82
2023/12/03 06:00:10;;;;;;;;;;;-1.10;99.90;;;;;;6742316;88;20063;-79
2023/12/03 06:10:10;;;;;;;;;;;-1.00;99.90;;;;;;6746988;88;20071;-81
2023/12/03 06:20:11;;;;;;;;;;;-1.10;99.90;;;;;;6745864;88;20070;-81
2023/12/03 06:30:11;;;;;;;;;;;-1.20;99.90;;;;;;6751230;88;20055;-80
2023/12/03 06:40:13;;;;;;;;;;;-1.20;99.90;;;;;;6752004;88;20250;-80
2023/12/03 06:50:13;;;;;;;;;;;-1.20;99.90;;;;;;6751853;88;20033;-80
2023/12/03 07:00:14;;;;;;;;;;;-1.10;99.90;;;;;;6715128;88;20028;-81
2023/12/03 07:10:15;;;;;;;;;;;-1.20;99.90;;;;;;6715153;88;20692;-80
2023/12/03 07:20:17;;;;;;;;;;;-1.10;99.90;;;;;;6714904;88;20151;-82
2023/12/03 07:41:20;;;;;;;;;;;-1.00;99.90;;;;;;6733896;88;20023;-80
2023/12/03 07:51:20;;;;;;;;;;;-1.00;99.90;;;;;;6750688;88;20038;-80
2023/12/03 08:01:21;;;;;;;;;;;-1.10;99.90;;;;;;6750944;88;20145;-84
2023/12/03 08:11:21;;;;;;;;;;;-1.20;99.90;;;;;;6750843;88;20030;-80
2023/12/03 08:21:22;;;;;;;;;;;-1.10;99.90;;;;;;6745141;88;20121;-80
2023/12/03 08:31:23;;;;;;;;;;;-1.00;99.90;;;;;;6741048;88;20074;-80
2023/12/03 08:41:23;;;;;;;;;;;-1.10;99.90;;;;;;6740377;88;20127;-80
2023/12/03 08:51:24;;;;;;;;;;;-0.80;99.90;;;;;;6738593;88;20083;-80
2023/12/03 09:01:24;;;;;;;;;;;-0.40;99.90;;;;;;6733358;88;20054;-79
2023/12/03 09:11:25;;;;;;;;;;;-0.30;99.90;;;;;;6733494;88;20053;-81
2023/12/03 09:21:25;;;;;;;;;;;-0.20;99.90;;;;;;6734116;88;20070;-80
2023/12/03 09:31:25;;;;;;;;;;;-0.10;99.90;;;;;;6729972;88;20066;-79
2023/12/03 09:41:29;;;;;;;;;;;0.40;99.90;;;;;;6747430;88;20081;-80
2023/12/03 09:51:32;;;;;;;;;;;0.90;99.90;;;;;;6741074;88;20096;-81
2023/12/03 10:01:33;;;;;;;;;;;1.30;99.90;;;;;;6745137;88;20054;-79
2023/12/03 10:11:47;;;;;;;;;;;1.70;99.90;;;;;;6722643;88;20047;-80
2023/12/03 10:21:48;;;;;;;;;;;1.70;99.90;;;;;;6733086;88;20065;-79
2023/12/03 10:31:53;;;;;;;;;;;2.20;99.90;;;;;;6727367;88;20079;-80
2023/12/03 10:41:54;;;;;;;;;;;2.20;99.90;;;;;;6723715;88;20103;-79
2023/12/03 10:51:57;;;;;;;;;;;2.50;99.90;;;;;;6722308;88;20141;-80
2023/12/03 11:02:01;;;;;;;;;;;2.60;99.90;;;;;;6731221;88;20084;-79
2023/12/03 11:12:02;;;;;;;;;;;2.50;99.90;;;;;;6728288;88;20075;-79
2023/12/03 11:22:03;;;;;;;;;;;2.20;99.90;;;;;;6728498;88;20139;-80
2023/12/03 11:32:04;;;;;;;;;;;2.00;99.90;;;;;;6722397;88;21556;-79
2023/12/03 11:42:06;;;;;;;;;;;2.20;99.90;;;;;;6729864;88;20289;-80
2023/12/03 11:52:06;;;;;;;;;;;2.20;99.90;;;;;;6730782;88;20125;-78
2023/12/03 12:02:06;;;;;;;;;;;1.90;99.90;;;;;;6725785;88;20162;-79
2023/12/03 12:12:07;;;;;;;;;;;2.70;99.90;;;;;;6723653;88;20907;-79
2023/12/03 12:22:07;;;;;;;;;;;3.60;99.90;;;;;;6724076;88;20098;-79
2023/12/03 12:32:08;;;;;;;;;;;3.70;99.90;;;;;;6734164;88;20579;-79
2023/12/03 12:42:21;;;;;;;;;;;4.70;99.90;;;;;;6740055;88;20121;-79
2023/12/03 12:52:22;;;;;;;;;;;3.80;99.90;;;;;;6740138;88;20047;-78
2023/12/03 13:02:23;;;;;;;;;;;4.40;99.90;;;;;;6745196;88;20075;-76
2023/12/03 13:12:23;;;;;;;;;;;4.40;99.90;;;;;;6742761;88;20055;-77
2023/12/03 13:22:24;;;;;;;;;;;4.80;99.90;;;;;;6741719;88;20131;-79
2023/12/03 13:32:24;;;;;;;;;;;3.80;99.90;;;;;;6741476;88;20125;-78
2023/12/03 13:42:25;;;;;;;;;;;3.90;99.90;;;;;;6746627;88;20044;-78
2023/12/03 13:52:25;;;;;;;;;;;2.80;99.90;;;;;;6741480;88;20039;-77
2023/12/03 14:02:26;;;;;;;;;;;2.30;99.90;;;;;;6728768;88;20200;-78
2023/12/03 14:12:26;;;;;;;;;;;2.30;99.90;;;;;;6734477;88;20091;-80
2023/12/03 14:22:27;;;;;;;;;;;2.10;99.90;;;;;;6726058;88;20118;-79
2023/12/03 14:32:27;;;;;;;;;;;1.70;99.90;;;;;;6737809;88;20534;-81
2023/12/03 14:42:28;;;;;;;;;;;1.60;99.90;;;;;;6733043;88;20051;-80
2023/12/03 14:52:29;;;;;;;;;;;1.50;99.90;;;;;;6728348;88;20120;-80
2023/12/03 15:02:29;;;;;;;;;;;1.40;99.90;;;;;;6725313;88;20065;-79
2023/12/03 15:12:30;;;;;;;;;;;1.20;99.90;;;;;;6722169;88;20067;-80
2023/12/03 15:22:31;;;;;;;;;;;1.10;99.90;;;;;;6734542;88;20102;-81
2023/12/03 15:32:31;;;;;;;;;;;1.00;99.90;;;;;;6737441;88;20701;-79
2023/12/03 15:53:34;;;;;;;;;;;0.90;99.90;;;;;;6744211;88;20043;-80
2023/12/03 16:03:34;;;;;;;;;;;0.90;99.90;;;;;;6727131;88;20063;-80
2023/12/03 16:13:35;;;;;;;;;;;0.90;99.90;;;;;;6727828;88;20024;-82
2023/12/03 16:23:35;;;;;;;;;;;0.90;99.90;;;;;;6724238;88;20061;-81
2023/12/03 16:33:37;;;;;;;;;;;0.80;99.90;;;;;;6727192;88;20527;-81
2023/12/03 16:43:38;;;;;;;;;;;0.80;99.90;;;;;;6721496;88;20063;-81
2023/12/03 16:53:40;;;;;;;;;;;0.80;99.90;;;;;;6727900;88;20098;-82
2023/12/03 17:03:40;;;;;;;;;;;0.90;99.90;;;;;;6729172;88;20075;-81
2023/12/03 17:13:41;;;;;;;;;;;0.90;99.90;;;;;;6730803;88;20114;-81
2023/12/03 17:23:41;;;;;;;;;;;0.90;99.90;;;;;;6724758;88;20201;-81
2023/12/03 17:33:42;;;;;;;;;;;0.90;99.90;;;;;;6724187;88;20054;-81
2023/12/03 17:43:42;;;;;;;;;;;0.30;99.90;;;;;;6721857;88;20748;-79
2023/12/03 17:53:43;;;;;;;;;;;-0.20;99.90;;;;;;6724292;88;20071;-80
2023/12/03 18:03:44;;;;;;;;;;;-0.30;99.90;;;;;;6729094;88;20073;-81
2023/12/03 18:13:44;;;;;;;;;;;-0.40;99.90;;;;;;6725887;88;20040;-80
2023/12/03 18:23:45;;;;;;;;;;;-0.50;99.90;;;;;;6730977;88;20065;-80
2023/12/03 18:33:45;;;;;;;;;;;-0.50;99.90;;;;;;6730292;88;20558;-81
2023/12/03 18:43:46;;;;;;;;;;;-0.30;99.90;;;;;;6728437;88;20060;-81
2023/12/03 18:53:46;;;;;;;;;;;-0.10;99.90;;;;;;6731228;88;20161;-80
2023/12/03 19:03:47;;;;;;;;;;;0.00;99.90;;;;;;6733573;88;20595;-80
2023/12/03 19:13:47;;;;;;;;;;;-0.10;99.90;;;;;;6728915;88;20025;-80
2023/12/03 19:23:48;;;;;;;;;;;-0.30;99.90;;;;;;6716759;88;20024;-80
2023/12/03 19:33:48;;;;;;;;;;;-0.60;99.90;;;;;;6733794;88;20221;-80
2023/12/03 19:43:48;;;;;;;;;;;-0.70;99.90;;;;;;6722531;88;20061;-81
2023/12/03 19:53:49;;;;;;;;;;;-0.70;99.90;;;;;;6724780;88;20147;-80
2023/12/03 20:03:50;;;;;;;;;;;-0.60;99.90;;;;;;6723914;88;20092;-82
2023/12/03 20:13:50;;;;;;;;;;;-0.30;99.90;;;;;;6733507;88;20102;-82
2023/12/03 20:23:51;;;;;;;;;;;-0.20;99.90;;;;;;6733422;88;20028;-81
2023/12/03 20:33:51;;;;;;;;;;;-0.10;99.90;;;;;;6729832;88;20035;-81
2023/12/03 20:43:52;;;;;;;;;;;0.00;99.90;;;;;;6729555;88;20831;-82
2023/12/03 20:53:53;;;;;;;;;;;0.20;99.90;;;;;;6733518;88;20035;-81
2023/12/03 21:03:53;;;;;;;;;;;0.20;99.90;;;;;;6733619;88;20023;-81
2023/12/03 21:13:54;;;;;;;;;;;0.30;99.90;;;;;;6733368;88;20929;-80
2023/12/03 21:23:54;;;;;;;;;;;0.30;99.90;;;;;;6729487;88;20112;-81
2023/12/03 21:33:55;;;;;;;;;;;0.20;99.90;;;;;;6726579;88;20067;-81
2023/12/03 21:53:58;;;;;;;;;;;0.10;99.90;;;;;;6734694;88;20113;-79
2023/12/03 22:03:59;;;;;;;;;;;0.30;99.90;;;;;;6735163;88;20085;-79
2023/12/03 22:13:59;;;;;;;;;;;0.50;99.90;;;;;;6730908;88;20048;-77
2023/12/03 22:24:00;;;;;;;;;;;0.50;99.90;;;;;;6734339;88;20048;-79
2023/12/03 22:34:00;;;;;;;;;;;0.50;99.90;;;;;;6721006;88;20036;-77
2023/12/03 22:44:01;;;;;;;;;;;0.50;99.90;;;;;;6707640;88;20067;-78
2023/12/03 22:54:01;;;;;;;;;;;0.50;99.90;;;;;;6696928;89;20633;-80
2023/12/03 23:04:02;;;;;;;;;;;0.50;99.90;;;;;;6700671;89;20046;-77
2023/12/03 23:14:03;;;;;;;;;;;0.60;99.90;;;;;;6706810;88;20190;-77
2023/12/03 23:24:04;;;;;;;;;;;0.50;99.90;;;;;;6717243;88;20780;-77
2023/12/03 23:34:05;;;;;;;;;;;0.50;99.90;;;;;;6702158;88;20032;-78
2023/12/03 23:44:05;;;;;;;;;;;0.50;99.90;;;;;;6707848;88;20075;-79
2023/12/03 23:54:06;;;;;;;;;;;0.50;99.90;;;;;;6716992;88;20117;-79
